Portada
METAR-TAF:

METAR-TAF

Aeroports :

Twin County Airport

Galax-Hillsville, Virgínia, Estats Units d'Amèrica

latitud: 36-46N, longitud: 080-49W, altitud: 834 m

Observació

L'informe es va fer fa 13 minuts, a les 23:55 UTC
Vent calma
Temperatura 24°C
Humitat 74%
Pressió 1019 hPa
Visibilitat: 16.1 km
Núvols disperses a una alçada de 5000 ft

METAR: KHLX 102355Z AUTO 00000KT 10SM SCT050 24/19 A3009 RMK AO2 T02420191 10284 20242

Hora: 20:08 (00:08 UTC)


TAF: manca

Observacions i pronòstics meteorològics de més de 4000 aeroports (METAR i TAF).

Les estacions disponibles són els punts grocs i vermells al mapa.

Posi el ratolí al punt desitjat per veure el nom de l'estació.

Feu clic per veure les observacions i els pronòstics meteorològics.

Per canviar el mapa: feu clic els botons verds amb una creu de color negre per apropar; al botó verd amb un guió per allunyar la imatge; o en les fletxes verdes per a mapes adjacents.


METAR-TAF: